Time;durP1;ratioP1;P1;durP2;ratioP2;P2;SDS_P1;SDS_P2;PMS_P1;PMS_P2;Temp;Humidity;BMP_temperature;BMP_pressure;BME280_temperature;BME280_humidity;BME280_pressure;Samples;Min_cycle;Max_cycle;Signal;HPM_P1;HPM_P2
2021/09/12 00:00:51;;;;;;;25.60;21.40;;;18.00;99.90;;;;;;5013652;28;20271;-64
2021/09/12 00:03:20;;;;;;;28.53;21.80;;;18.10;99.90;;;;;;5007391;28;20230;-64
2021/09/12 00:05:48;;;;;;;26.03;21.30;;;18.10;99.90;;;;;;5008186;28;20584;-62
2021/09/12 00:08:16;;;;;;;26.13;22.43;;;18.00;99.90;;;;;;4999544;28;20662;-63
2021/09/12 00:10:46;;;;;;;30.17;23.03;;;18.00;99.90;;;;;;5020846;28;20239;-63
2021/09/12 00:13:15;;;;;;;27.60;21.97;;;18.10;99.90;;;;;;5014848;28;20338;-64
2021/09/12 00:15:43;;;;;;;30.20;22.47;;;18.10;99.90;;;;;;5012347;28;20593;-63
2021/09/12 00:18:11;;;;;;;29.20;22.30;;;18.10;99.90;;;;;;5012191;28;20247;-63
2021/09/12 00:20:39;;;;;;;26.63;21.07;;;18.10;99.90;;;;;;5016008;28;20239;-62
2021/09/12 00:23:08;;;;;;;26.23;22.30;;;18.10;99.90;;;;;;5010071;28;20239;-62
2021/09/12 00:25:36;;;;;;;27.97;22.33;;;18.20;99.90;;;;;;5016029;28;20246;-62
2021/09/12 00:28:05;;;;;;;27.67;21.83;;;18.10;99.90;;;;;;5017958;28;20299;-63
2021/09/12 00:30:33;;;;;;;26.53;20.90;;;18.10;99.90;;;;;;5010601;28;23233;-63
2021/09/12 00:33:02;;;;;;;23.70;20.37;;;18.20;99.90;;;;;;5013613;28;20238;-63
2021/09/12 00:35:30;;;;;;;24.57;21.03;;;18.10;99.90;;;;;;5021342;28;20601;-62
2021/09/12 00:37:58;;;;;;;31.17;23.50;;;18.10;99.90;;;;;;5023729;28;20229;-63
2021/09/12 00:40:26;;;;;;;27.63;22.20;;;18.00;99.90;;;;;;5009821;28;20227;-63
2021/09/12 00:42:54;;;;;;;24.03;21.37;;;18.00;99.90;;;;;;5011945;28;20265;-62
2021/09/12 00:45:24;;;;;;;26.47;22.10;;;18.00;99.90;;;;;;5019001;28;20590;-62
2021/09/12 00:47:52;;;;;;;26.30;22.00;;;18.10;99.90;;;;;;5014030;28;20235;-63
2021/09/12 00:50:21;;;;;;;26.57;22.40;;;18.10;99.90;;;;;;5017023;28;20267;-62
2021/09/12 00:52:51;;;;;;;24.97;22.10;;;18.10;99.90;;;;;;5016856;28;20586;-63
2021/09/12 00:55:22;;;;;;;27.87;23.17;;;18.10;99.90;;;;;;5011473;28;20259;-63
2021/09/12 00:57:51;;;;;;;28.17;23.33;;;18.00;99.90;;;;;;5018815;28;20235;-62
2021/09/12 01:00:19;;;;;;;27.10;22.47;;;18.10;99.90;;;;;;5005219;28;20663;-63
2021/09/12 01:02:49;;;;;;;27.03;22.97;;;18.10;99.90;;;;;;5011874;28;20237;-63
2021/09/12 01:05:18;;;;;;;26.97;22.80;;;18.10;99.90;;;;;;5013272;28;20243;-62
2021/09/12 01:07:46;;;;;;;30.33;24.60;;;18.00;99.90;;;;;;5014895;28;20236;-63
2021/09/12 01:10:15;;;;;;;30.40;23.63;;;18.00;99.90;;;;;;5022670;28;20589;-63
2021/09/12 01:12:43;;;;;;;30.40;23.93;;;18.00;99.90;;;;;;5018662;28;20239;-62
2021/09/12 01:15:12;;;;;;;27.67;24.10;;;18.00;99.90;;;;;;5013341;28;20244;-63
2021/09/12 01:17:40;;;;;;;30.73;24.20;;;18.00;99.90;;;;;;5013073;28;20240;-63
2021/09/12 01:20:10;;;;;;;31.93;25.60;;;18.00;99.90;;;;;;5023182;28;20646;-63
2021/09/12 01:22:39;;;;;;;32.63;26.30;;;18.00;99.90;;;;;;5007455;28;20722;-63
2021/09/12 01:25:09;;;;;;;29.73;24.63;;;17.90;99.90;;;;;;5012824;28;20248;-63
2021/09/12 01:27:38;;;;;;;29.20;24.50;;;18.00;99.90;;;;;;5018038;28;20246;-63
2021/09/12 01:30:07;;;;;;;30.97;25.90;;;18.00;99.90;;;;;;5006497;28;20235;-63
2021/09/12 01:32:35;;;;;;;33.40;25.93;;;18.00;99.90;;;;;;5014276;28;20264;-62
2021/09/12 01:35:04;;;;;;;31.70;26.57;;;18.00;99.90;;;;;;5013950;28;20735;-62
2021/09/12 01:37:32;;;;;;;34.87;26.13;;;17.90;99.90;;;;;;5017441;28;20444;-62
2021/09/12 01:40:00;;;;;;;33.90;28.53;;;17.90;99.90;;;;;;5011107;28;20323;-63
2021/09/12 01:42:30;;;;;;;31.40;26.03;;;17.90;99.90;;;;;;5018156;28;20268;-64
2021/09/12 01:44:58;;;;;;;32.30;25.33;;;17.90;99.90;;;;;;5009174;28;20235;-62
2021/09/12 01:47:26;;;;;;;31.27;26.63;;;17.90;99.90;;;;;;5019633;28;20226;-63
2021/09/12 01:49:54;;;;;;;32.07;25.97;;;17.90;99.90;;;;;;5015479;28;20266;-62
2021/09/12 01:52:22;;;;;;;32.47;26.20;;;17.90;99.90;;;;;;5010506;28;20248;-62
2021/09/12 01:54:50;;;;;;;32.40;26.20;;;17.90;99.90;;;;;;5022224;28;20707;-62
2021/09/12 01:57:18;;;;;;;31.63;27.23;;;17.90;99.90;;;;;;5013977;28;20242;-64
2021/09/12 01:59:48;;;;;;;33.33;28.90;;;17.90;99.90;;;;;;5015344;28;20258;-62
2021/09/12 02:02:16;;;;;;;34.10;28.00;;;17.90;99.90;;;;;;5007670;28;20231;-62
2021/09/12 02:04:44;;;;;;;35.47;28.50;;;17.90;99.90;;;;;;5015289;28;20248;-63
2021/09/12 02:07:12;;;;;;;38.73;29.97;;;18.00;99.90;;;;;;5013471;28;20594;-62
2021/09/12 02:09:40;;;;;;;33.00;26.87;;;17.90;99.90;;;;;;5020411;28;20246;-63
2021/09/12 02:12:09;;;;;;;35.77;27.83;;;17.90;99.90;;;;;;5012194;28;20264;-62
2021/09/12 02:14:37;;;;;;;37.93;29.83;;;17.90;99.90;;;;;;5011624;28;20237;-63
2021/09/12 02:17:06;;;;;;;34.37;27.40;;;17.90;99.90;;;;;;5021632;28;20317;-64
2021/09/12 02:19:35;;;;;;;34.93;28.60;;;18.00;99.90;;;;;;5015553;28;20309;-64
2021/09/12 02:22:03;;;;;;;35.03;29.63;;;18.00;99.90;;;;;;5023356;28;20585;-62
2021/09/12 02:24:31;;;;;;;39.37;31.23;;;17.90;99.90;;;;;;5012319;28;20326;-63
2021/09/12 02:26:59;;;;;;;36.73;29.70;;;17.90;99.90;;;;;;5012201;28;20230;-63
2021/09/12 02:29:27;;;;;;;35.47;29.53;;;17.80;99.90;;;;;;5015010;28;20742;-62
2021/09/12 02:31:55;;;;;;;34.30;28.73;;;17.80;99.90;;;;;;5011391;28;20699;-63
2021/09/12 02:34:25;;;;;;;34.63;28.93;;;17.80;99.90;;;;;;5016869;28;20329;-63
2021/09/12 02:36:53;;;;;;;34.00;29.33;;;17.80;99.90;;;;;;5020985;28;20244;-63
2021/09/12 02:39:21;;;;;;;34.70;28.30;;;17.80;99.90;;;;;;5011201;28;20248;-62
2021/09/12 02:41:49;;;;;;;33.37;27.27;;;17.80;99.90;;;;;;5010512;28;20322;-62
2021/09/12 02:44:17;;;;;;;36.80;29.63;;;17.80;99.90;;;;;;5017537;28;20227;-64
2021/09/12 02:46:45;;;;;;;33.90;28.90;;;17.80;99.90;;;;;;5012955;28;20325;-63
2021/09/12 02:49:13;;;;;;;31.00;27.43;;;17.80;99.90;;;;;;5016032;28;20290;-62
2021/09/12 02:51:43;;;;;;;31.70;26.80;;;17.80;99.90;;;;;;5019708;28;20244;-63
2021/09/12 02:54:11;;;;;;;32.93;29.07;;;17.80;99.90;;;;;;5002688;28;20247;-62
2021/09/12 02:56:39;;;;;;;34.53;27.87;;;17.80;99.90;;;;;;5023575;28;20277;-63
2021/09/12 02:59:07;;;;;;;31.50;28.10;;;17.70;99.90;;;;;;5010382;28;20248;-63
2021/09/12 03:01:35;;;;;;;37.13;29.47;;;17.60;99.90;;;;;;5011557;28;20325;-63
2021/09/12 03:04:04;;;;;;;35.03;28.17;;;17.60;99.90;;;;;;5011079;28;20330;-63
2021/09/12 03:06:32;;;;;;;30.97;27.63;;;17.60;99.90;;;;;;5011519;28;20693;-64
2021/09/12 03:09:02;;;;;;;40.33;31.50;;;17.60;99.90;;;;;;5012669;28;20465;-62
2021/09/12 03:11:30;;;;;;;34.23;28.83;;;17.60;99.90;;;;;;5024594;28;20240;-62
2021/09/12 03:13:58;;;;;;;32.33;27.70;;;17.60;99.90;;;;;;5013086;28;20254;-62
2021/09/12 03:16:26;;;;;;;35.80;29.47;;;17.50;99.90;;;;;;5012403;28;20233;-63
2021/09/12 03:18:54;;;;;;;33.50;28.43;;;17.50;99.90;;;;;;5012536;28;20237;-62
2021/09/12 03:21:23;;;;;;;35.47;28.53;;;17.50;99.90;;;;;;5007327;28;20230;-62
2021/09/12 03:23:51;;;;;;;32.83;27.40;;;17.50;99.90;;;;;;5005053;28;20318;-63
2021/09/12 03:26:20;;;;;;;34.63;28.10;;;17.50;99.90;;;;;;5000624;28;20319;-64
2021/09/12 03:28:49;;;;;;;33.63;26.87;;;17.60;99.90;;;;;;5011248;28;20234;-62
2021/09/12 03:31:17;;;;;;;34.43;29.10;;;17.60;99.90;;;;;;5001395;28;20235;-63
2021/09/12 03:33:45;;;;;;;34.87;28.40;;;17.60;99.90;;;;;;5011081;28;20524;-62
2021/09/12 03:36:13;;;;;;;34.93;29.07;;;17.60;99.90;;;;;;5008159;28;20328;-63
2021/09/12 03:38:41;;;;;;;34.63;29.53;;;17.50;99.90;;;;;;5007993;28;20611;-63
2021/09/12 03:41:09;;;;;;;37.10;29.97;;;17.50;99.90;;;;;;5007212;28;20310;-62
2021/09/12 03:43:39;;;;;;;34.00;28.50;;;17.60;99.90;;;;;;5012003;28;20247;-63
2021/09/12 03:46:07;;;;;;;33.87;28.67;;;17.50;99.90;;;;;;5009851;28;20242;-64
2021/09/12 03:48:35;;;;;;;33.43;28.20;;;17.50;99.90;;;;;;5015747;28;20674;-63
2021/09/12 03:51:03;;;;;;;36.17;29.47;;;17.50;99.90;;;;;;5009416;28;20263;-63
2021/09/12 03:53:31;;;;;;;34.07;29.77;;;17.50;99.90;;;;;;5018314;28;20425;-63
2021/09/12 03:56:00;;;;;;;38.07;28.13;;;17.40;99.90;;;;;;5010764;28;20247;-62
2021/09/12 03:58:28;;;;;;;35.63;29.03;;;17.40;99.90;;;;;;5014117;28;20326;-62
2021/09/12 04:00:57;;;;;;;36.90;29.80;;;17.50;99.90;;;;;;5014701;28;20261;-64
2021/09/12 04:03:25;;;;;;;33.63;28.97;;;17.50;99.90;;;;;;5012881;28;20242;-63
2021/09/12 04:05:54;;;;;;;34.90;29.70;;;17.50;99.90;;;;;;5010183;28;20232;-62
2021/09/12 04:08:22;;;;;;;35.90;29.83;;;17.40;99.90;;;;;;5008326;28;20238;-62
2021/09/12 04:10:50;;;;;;;35.23;28.27;;;17.40;99.90;;;;;;5002694;28;20241;-62
2021/09/12 04:13:18;;;;;;;36.13;28.43;;;17.50;99.90;;;;;;4995464;28;20868;-63
2021/09/12 04:15:46;;;;;;;36.33;28.77;;;17.40;99.90;;;;;;5001709;28;20244;-62
2021/09/12 04:18:16;;;;;;;36.70;30.40;;;17.40;99.90;;;;;;5000542;28;20583;-64
2021/09/12 04:20:44;;;;;;;34.00;28.10;;;17.40;99.90;;;;;;4998463;28;20223;-62
2021/09/12 04:23:12;;;;;;;37.10;29.77;;;17.40;99.90;;;;;;4995089;28;20320;-62
2021/09/12 04:25:40;;;;;;;36.27;28.70;;;17.40;99.90;;;;;;4999975;28;20242;-63
2021/09/12 04:28:08;;;;;;;38.87;30.40;;;17.40;99.90;;;;;;5004886;28;20292;-62
2021/09/12 04:30:36;;;;;;;37.43;28.50;;;17.40;99.90;;;;;;5006129;28;20226;-62
2021/09/12 04:33:04;;;;;;;36.40;30.23;;;17.40;99.90;;;;;;5002105;28;20276;-62
2021/09/12 04:35:33;;;;;;;36.77;28.20;;;17.40;99.90;;;;;;5010349;28;20275;-62
2021/09/12 04:38:03;;;;;;;38.63;29.00;;;17.40;99.90;;;;;;5007569;28;20326;-62
2021/09/12 04:40:32;;;;;;;40.07;28.67;;;17.50;99.90;;;;;;5015703;28;20247;-63
2021/09/12 04:43:00;;;;;;;40.17;30.07;;;17.50;99.90;;;;;;5013403;28;20243;-63
2021/09/12 04:45:29;;;;;;;38.70;29.87;;;17.50;99.90;;;;;;5012133;28;20253;-62
2021/09/12 04:47:57;;;;;;;38.53;30.07;;;17.50;99.90;;;;;;5004539;28;20310;-62
2021/09/12 04:50:25;;;;;;;37.83;28.50;;;17.50;99.90;;;;;;5003280;28;20244;-62
2021/09/12 04:52:54;;;;;;;37.93;29.13;;;17.50;99.90;;;;;;4999437;28;20981;-62
2021/09/12 04:55:23;;;;;;;34.87;29.17;;;17.50;99.90;;;;;;5004752;28;20236;-63
2021/09/12 04:57:51;;;;;;;35.57;28.70;;;17.40;99.90;;;;;;4996973;28;20271;-64
2021/09/12 05:00:19;;;;;;;38.07;29.37;;;17.50;99.90;;;;;;5005741;28;20241;-62
2021/09/12 05:02:47;;;;;;;38.37;28.57;;;17.50;99.90;;;;;;5005793;28;20304;-64
2021/09/12 05:05:17;;;;;;;40.23;30.17;;;17.50;99.90;;;;;;5009221;28;20885;-63
2021/09/12 05:07:45;;;;;;;38.13;29.87;;;17.50;99.90;;;;;;5006147;28;20643;-62
2021/09/12 05:10:18;;;;;;;42.07;31.67;;;17.40;99.90;;;;;;4999109;28;20950;-63
2021/09/12 05:12:46;;;;;;;38.03;30.50;;;17.40;99.90;;;;;;5004623;28;20375;-64
2021/09/12 05:15:16;;;;;;;37.00;29.07;;;17.40;99.90;;;;;;5009419;28;20226;-63
2021/09/12 05:17:44;;;;;;;40.33;29.70;;;17.50;99.90;;;;;;5010723;28;21805;-63
2021/09/12 05:20:13;;;;;;;36.80;28.93;;;17.50;99.90;;;;;;5008669;28;20233;-62
2021/09/12 05:22:41;;;;;;;37.73;29.37;;;17.50;99.90;;;;;;5008098;28;21335;-64
2021/09/12 05:25:10;;;;;;;42.10;31.13;;;17.50;99.90;;;;;;5008406;28;20246;-64
2021/09/12 05:27:40;;;;;;;40.00;30.37;;;17.50;99.90;;;;;;5007595;28;20322;-63
2021/09/12 05:30:09;;;;;;;43.87;32.03;;;17.50;99.90;;;;;;5013945;28;20293;-63
2021/09/12 05:32:37;;;;;;;38.50;31.03;;;17.50;99.90;;;;;;5009760;28;20703;-62
2021/09/12 05:35:06;;;;;;;38.03;30.13;;;17.50;99.90;;;;;;5002299;28;20296;-63
2021/09/12 05:37:34;;;;;;;38.60;30.77;;;17.50;99.90;;;;;;5012544;28;20246;-62
2021/09/12 05:40:03;;;;;;;40.87;31.87;;;17.50;99.90;;;;;;5011943;28;20258;-64
2021/09/12 05:42:31;;;;;;;38.33;30.23;;;17.50;99.90;;;;;;5009589;28;20705;-64
2021/09/12 05:45:00;;;;;;;42.80;31.27;;;17.60;99.90;;;;;;5017342;28;20574;-63
2021/09/12 05:47:28;;;;;;;43.27;32.07;;;17.60;99.90;;;;;;5006551;28;20314;-62
2021/09/12 05:49:57;;;;;;;39.90;30.20;;;17.60;99.90;;;;;;5003629;28;20229;-62
2021/09/12 05:52:26;;;;;;;39.53;30.97;;;17.50;99.90;;;;;;5013705;28;20784;-63
2021/09/12 05:54:54;;;;;;;40.53;30.77;;;17.60;99.90;;;;;;5011683;28;20231;-62
2021/09/12 05:57:22;;;;;;;38.77;31.10;;;17.60;99.90;;;;;;5009157;28;20234;-63
2021/09/12 05:59:50;;;;;;;40.00;30.07;;;17.60;99.90;;;;;;5012337;28;20245;-62
2021/09/12 06:02:19;;;;;;;39.67;31.57;;;17.60;99.90;;;;;;4996180;28;20336;-62
2021/09/12 06:04:48;;;;;;;40.10;30.60;;;17.60;99.90;;;;;;5010531;28;20262;-63
2021/09/12 06:07:16;;;;;;;43.90;31.50;;;17.70;99.90;;;;;;5009110;28;20264;-62
2021/09/12 06:09:44;;;;;;;39.83;30.40;;;17.70;99.90;;;;;;5006830;28;20329;-63
2021/09/12 06:12:13;;;;;;;37.93;29.43;;;17.70;99.90;;;;;;5001805;28;20239;-63
2021/09/12 06:14:41;;;;;;;39.53;29.73;;;17.70;99.90;;;;;;5013582;28;20247;-62
2021/09/12 06:17:09;;;;;;;35.27;28.23;;;17.70;99.90;;;;;;5016319;28;20241;-63
2021/09/12 06:19:43;;;;;;;33.63;27.07;;;17.70;99.90;;;;;;5012934;28;20558;-64
2021/09/12 06:22:12;;;;;;;36.67;29.33;;;17.80;99.90;;;;;;5008865;28;20381;-62
2021/09/12 06:24:40;;;;;;;40.30;29.30;;;17.80;99.90;;;;;;5005008;28;20242;-64
2021/09/12 06:27:08;;;;;;;36.20;28.73;;;17.80;99.90;;;;;;5003325;28;20242;-64
2021/09/12 06:29:36;;;;;;;40.50;29.77;;;17.80;99.90;;;;;;5011275;28;20243;-64
2021/09/12 06:32:05;;;;;;;36.87;28.30;;;17.90;99.90;;;;;;5009716;28;20243;-63
2021/09/12 06:34:33;;;;;;;38.57;29.00;;;17.90;99.90;;;;;;5008131;28;20245;-62
2021/09/12 06:37:03;;;;;;;38.93;28.47;;;17.90;99.90;;;;;;4999587;28;20748;-63
2021/09/12 06:39:31;;;;;;;34.43;27.93;;;17.90;99.90;;;;;;5006315;28;20267;-63
2021/09/12 06:42:00;;;;;;;41.53;30.00;;;17.90;99.90;;;;;;4998617;28;20241;-62
2021/09/12 06:44:28;;;;;;;36.17;29.07;;;18.00;99.90;;;;;;4996541;28;20320;-63
2021/09/12 06:46:56;;;;;;;38.33;27.83;;;18.00;99.90;;;;;;4995086;28;20229;-62
2021/09/12 06:49:24;;;;;;;37.27;29.17;;;18.10;99.90;;;;;;4997856;28;20227;-63
2021/09/12 06:51:56;;;;;;;38.23;28.93;;;18.10;99.90;;;;;;4997749;28;20345;-62
2021/09/12 06:54:25;;;;;;;39.27;28.70;;;18.10;99.90;;;;;;4998362;28;20595;-64
2021/09/12 06:57:19;;;;;;;40.80;29.03;;;18.20;99.90;;;;;;5002023;28;20240;-63
2021/09/12 06:59:47;;;;;;;39.50;28.73;;;18.30;99.90;;;;;;5000663;28;20227;-63
2021/09/12 07:02:15;;;;;;;40.47;28.20;;;18.30;99.90;;;;;;5003982;28;21010;-63
2021/09/12 07:04:44;;;;;;;38.20;27.97;;;18.30;99.90;;;;;;5008429;28;20275;-64
2021/09/12 07:07:12;;;;;;;36.20;27.83;;;18.40;99.90;;;;;;5011135;28;20627;-63
2021/09/12 07:09:41;;;;;;;37.10;28.03;;;18.60;99.90;;;;;;5013051;28;20707;-62
2021/09/12 07:12:16;;;;;;;35.77;26.73;;;18.60;99.90;;;;;;5008865;28;20232;-63
2021/09/12 07:14:44;;;;;;;40.70;27.50;;;18.70;99.90;;;;;;5012161;28;20298;-63
2021/09/12 07:17:13;;;;;;;33.80;27.07;;;18.80;99.90;;;;;;5016325;28;20717;-64
2021/09/12 07:19:41;;;;;;;36.17;26.40;;;18.90;99.90;;;;;;5013001;28;20289;-63
2021/09/12 07:22:09;;;;;;;36.67;26.07;;;18.90;99.90;;;;;;5010213;28;20238;-62
2021/09/12 07:24:38;;;;;;;35.63;26.50;;;18.90;99.90;;;;;;5012743;28;20273;-64
2021/09/12 07:27:08;;;;;;;36.80;26.30;;;18.90;99.90;;;;;;5005286;28;20242;-62
2021/09/12 07:29:36;;;;;;;36.00;26.90;;;18.90;99.90;;;;;;4997292;28;20685;-62
2021/09/12 07:32:05;;;;;;;35.77;25.93;;;18.90;99.90;;;;;;4996052;28;20250;-63
2021/09/12 07:34:35;;;;;;;36.53;26.47;;;19.00;99.90;;;;;;4994925;28;20245;-62
2021/09/12 07:37:03;;;;;;;31.93;24.40;;;19.00;99.90;;;;;;5006355;28;20324;-62
2021/09/12 07:39:32;;;;;;;33.77;26.17;;;19.00;99.90;;;;;;5015807;28;21058;-63
2021/09/12 07:42:01;;;;;;;32.23;24.97;;;19.00;99.90;;;;;;5012892;28;20241;-64
2021/09/12 07:44:30;;;;;;;35.83;26.23;;;18.90;99.90;;;;;;5009641;28;20241;-62
2021/09/12 07:46:58;;;;;;;37.70;25.50;;;18.80;99.90;;;;;;5012333;28;20247;-63
2021/09/12 07:49:27;;;;;;;35.13;26.67;;;18.80;99.90;;;;;;5012479;28;20240;-63
2021/09/12 07:51:56;;;;;;;32.67;25.70;;;18.80;99.90;;;;;;4997139;28;20236;-62
2021/09/12 07:54:24;;;;;;;32.30;24.27;;;18.80;99.90;;;;;;4998395;28;20416;-63
2021/09/12 07:56:52;;;;;;;35.50;24.80;;;18.90;99.90;;;;;;4995651;28;20248;-64
2021/09/12 07:59:20;;;;;;;33.67;24.87;;;18.90;99.90;;;;;;4998494;28;20291;-63
2021/09/12 08:01:50;;;;;;;33.73;24.43;;;18.90;99.90;;;;;;5003232;28;20241;-62
2021/09/12 08:04:18;;;;;;;37.23;23.23;;;18.90;99.90;;;;;;5002145;28;20603;-64
2021/09/12 08:06:46;;;;;;;32.50;24.00;;;18.90;99.90;;;;;;5012688;28;20246;-63
2021/09/12 08:09:14;;;;;;;30.03;23.80;;;18.90;99.90;;;;;;5002311;28;20299;-63
2021/09/12 08:11:43;;;;;;;31.83;22.93;;;18.90;99.90;;;;;;5006607;28;20231;-62
2021/09/12 08:14:11;;;;;;;35.10;24.30;;;18.90;99.90;;;;;;5010721;28;20728;-63
2021/09/12 08:16:45;;;;;;;33.00;23.63;;;18.90;99.90;;;;;;5024860;28;20235;-67
2021/09/12 08:19:29;;;;;;;30.67;22.93;;;18.90;99.90;;;;;;5008049;28;20236;-68
2021/09/12 08:21:58;;;;;;;34.17;23.77;;;18.90;99.90;;;;;;5011617;28;20244;-62
2021/09/12 08:24:26;;;;;;;30.33;21.67;;;18.90;99.90;;;;;;5016141;28;20285;-62
2021/09/12 08:26:55;;;;;;;27.50;22.80;;;19.00;99.90;;;;;;5008245;28;20756;-62
2021/09/12 08:29:23;;;;;;;26.13;19.23;;;19.00;99.90;;;;;;5008305;28;20739;-61
2021/09/12 08:31:51;;;;;;;23.93;18.30;;;19.10;99.90;;;;;;5000452;28;20315;-65
2021/09/12 08:34:23;;;;;;;26.87;19.17;;;19.40;99.90;;;;;;5012549;28;20410;-64
2021/09/12 08:36:51;;;;;;;25.30;18.33;;;19.40;99.90;;;;;;5003159;28;20323;-66
2021/09/12 08:39:20;;;;;;;24.07;17.87;;;19.40;99.90;;;;;;4997509;28;20626;-65
2021/09/12 08:41:48;;;;;;;24.70;19.07;;;19.40;99.90;;;;;;5010973;28;20228;-65
2021/09/12 08:44:18;;;;;;;26.83;19.23;;;19.30;99.90;;;;;;5007375;28;20347;-64
2021/09/12 08:46:48;;;;;;;26.97;17.67;;;19.20;99.90;;;;;;5013242;28;20242;-64
2021/09/12 08:49:17;;;;;;;25.47;17.70;;;19.20;99.90;;;;;;5012647;28;20244;-65
2021/09/12 08:51:47;;;;;;;25.53;18.43;;;19.20;99.90;;;;;;5015660;28;20249;-64
2021/09/12 08:54:15;;;;;;;23.77;17.93;;;19.10;99.90;;;;;;5011042;28;20683;-65
2021/09/12 08:56:43;;;;;;;23.77;17.97;;;19.10;99.90;;;;;;5009657;28;20257;-64
2021/09/12 08:59:28;;;;;;;21.10;16.80;;;19.20;99.90;;;;;;5015172;28;20246;-64
2021/09/12 09:01:57;;;;;;;22.43;17.00;;;19.20;99.90;;;;;;5010872;28;20265;-64
2021/09/12 09:04:28;;;;;;;21.37;17.50;;;19.30;99.90;;;;;;5019309;28;20611;-65
2021/09/12 09:07:01;;;;;;;21.80;15.77;;;19.40;99.90;;;;;;5018770;28;20263;-65
2021/09/12 09:09:41;;;;;;;22.07;15.67;;;19.40;99.90;;;;;;5017298;28;20232;-64
2021/09/12 09:12:23;;;;;;;23.53;16.27;;;19.50;99.90;;;;;;5006780;28;20467;-65
2021/09/12 09:15:06;;;;;;;22.10;15.93;;;19.50;99.90;;;;;;5003868;28;20281;-64
2021/09/12 09:17:37;;;;;;;21.60;16.60;;;19.50;99.90;;;;;;5008044;28;20286;-65
2021/09/12 09:20:07;;;;;;;20.30;16.97;;;19.50;99.90;;;;;;5008586;28;20289;-65
2021/09/12 09:22:39;;;;;;;22.10;16.03;;;19.70;99.90;;;;;;5008702;28;20274;-65
2021/09/12 09:25:19;;;;;;;21.30;15.13;;;20.00;99.90;;;;;;5005808;28;20262;-65
2021/09/12 09:28:02;;;;;;;18.17;15.83;;;20.30;99.90;;;;;;5008498;28;20672;-65
2021/09/12 09:30:33;;;;;;;18.87;15.10;;;20.70;99.90;;;;;;4998663;28;20675;-65
2021/09/12 09:33:19;;;;;;;17.03;13.70;;;20.90;99.90;;;;;;4997730;28;20242;-64
2021/09/12 09:36:01;;;;;;;18.70;14.40;;;21.50;99.90;;;;;;5009700;28;20305;-65
2021/09/12 09:38:33;;;;;;;18.50;14.50;;;21.70;99.90;;;;;;5005681;28;20240;-65
2021/09/12 09:41:12;;;;;;;15.73;12.53;;;21.80;99.90;;;;;;5011954;28;20245;-66
2021/09/12 09:43:43;;;;;;;19.10;13.50;;;22.30;99.90;;;;;;5005301;28;20731;-64
2021/09/12 09:46:33;;;;;;;17.63;13.67;;;22.70;99.90;;;;;;5009783;28;20244;-64
2021/09/12 09:49:19;;;;;;;15.73;12.13;;;22.80;99.90;;;;;;5010801;28;20242;-65
2021/09/12 09:52:05;;;;;;;17.43;11.77;;;22.90;99.90;;;;;;1878314;28;10023453;-64
2021/09/12 09:54:35;;;;;;;18.40;12.20;;;22.60;99.90;;;;;;4650196;28;10000942;-64
2021/09/12 09:57:04;;;;;;;14.63;11.37;;;22.20;99.90;;;;;;5006292;28;20232;-64
2021/09/12 09:59:32;;;;;;;15.37;12.07;;;21.70;99.90;;;;;;5006874;28;20331;-65
2021/09/12 10:02:02;;;;;;;17.87;13.10;;;21.40;99.90;;;;;;5002355;28;20315;-65
2021/09/12 10:04:31;;;;;;;15.50;12.07;;;21.20;99.90;;;;;;4999011;28;20325;-64
2021/09/12 10:07:00;;;;;;;14.17;11.00;;;21.20;99.90;;;;;;5001968;28;20304;-64
2021/09/12 10:09:28;;;;;;;14.00;10.27;;;21.60;99.90;;;;;;4998511;28;20292;-65
2021/09/12 10:12:00;;;;;;;14.30;9.97;;;22.00;99.90;;;;;;5004720;28;20240;-64
2021/09/12 10:14:32;;;;;;;12.27;9.67;;;22.40;99.90;;;;;;5004930;28;20238;-65
2021/09/12 10:17:01;;;;;;;13.80;8.83;;;22.20;99.90;;;;;;5002845;28;20242;-64
2021/09/12 10:19:39;;;;;;;10.23;8.27;;;22.00;99.90;;;;;;4997792;28;20240;-64
2021/09/12 10:22:12;;;;;;;9.30;7.80;;;22.20;99.90;;;;;;4994188;28;20639;-64
2021/09/12 10:25:12;;;;;;;8.00;7.20;;;22.50;99.90;;;;;;5002708;28;20669;-64
2021/09/12 10:27:43;;;;;;;9.37;7.47;;;22.60;99.90;;;;;;5001167;28;20653;-64
2021/09/12 10:30:28;;;;;;;10.60;7.90;;;22.70;99.90;;;;;;5001840;28;20280;-64
2021/09/12 10:33:21;;;;;;;12.13;7.53;;;22.90;99.90;;;;;;5001282;28;20615;-65
2021/09/12 10:35:52;;;;;;;10.70;8.13;;;23.10;99.90;;;;;;5015125;28;20323;-64
2021/09/12 10:38:34;;;;;;;11.57;8.13;;;23.20;99.90;;;;;;5009482;28;20240;-63
2021/09/12 10:41:26;;;;;;;15.23;8.77;;;23.10;99.90;;;;;;5010225;28;20334;-64
2021/09/12 10:43:56;;;;;;;13.13;8.17;;;22.70;99.90;;;;;;5010593;28;20237;-63
2021/09/12 10:46:28;;;;;;;10.93;8.40;;;22.60;99.90;;;;;;5017675;28;20717;-63
2021/09/12 10:49:11;;;;;;;10.53;8.53;;;22.60;99.90;;;;;;5010282;28;20236;-63
2021/09/12 10:51:41;;;;;;;9.53;8.43;;;22.60;99.90;;;;;;5006924;28;20239;-64
2021/09/12 10:54:09;;;;;;;11.77;8.77;;;22.60;99.90;;;;;;5011004;28;20308;-64
2021/09/12 10:56:39;;;;;;;11.10;8.07;;;22.70;99.90;;;;;;5005087;28;20733;-65
2021/09/12 10:59:14;;;;;;;11.23;7.27;;;22.70;99.90;;;;;;5004261;28;20332;-64
2021/09/12 11:01:45;;;;;;;9.43;7.30;;;22.70;99.90;;;;;;5013904;28;20598;-64
2021/09/12 11:04:16;;;;;;;9.43;6.97;;;22.60;99.90;;;;;;5010148;28;20253;-64
2021/09/12 11:06:47;;;;;;;14.43;7.50;;;22.60;99.90;;;;;;5018248;28;20251;-64
2021/09/12 11:09:24;;;;;;;10.37;6.63;;;22.70;99.90;;;;;;5012287;28;20252;-64
2021/09/12 11:11:56;;;;;;;9.37;7.20;;;22.80;99.90;;;;;;5008379;28;20233;-65
2021/09/12 11:14:26;;;;;;;10.27;6.50;;;22.70;99.90;;;;;;5016206;28;20324;-64
2021/09/12 11:16:54;;;;;;;7.37;6.40;;;22.80;99.90;;;;;;5010903;28;20250;-63
2021/09/12 11:19:22;;;;;;;10.80;7.00;;;23.00;99.90;;;;;;5009335;28;20229;-63
2021/09/12 11:21:52;;;;;;;9.03;6.50;;;23.10;99.90;;;;;;5011983;28;20635;-64
2021/09/12 11:24:22;;;;;;;8.83;5.97;;;22.90;99.90;;;;;;5005822;28;20257;-64
2021/09/12 11:26:53;;;;;;;8.77;6.97;;;22.90;99.90;;;;;;5014515;28;20239;-64
2021/09/12 11:29:23;;;;;;;7.63;6.17;;;22.90;99.90;;;;;;5001168;28;20237;-64
2021/09/12 11:31:54;;;;;;;9.87;6.17;;;23.10;99.90;;;;;;5002126;28;20705;-65
2021/09/12 11:34:24;;;;;;;8.33;6.43;;;23.30;99.90;;;;;;4998265;28;20238;-64
2021/09/12 11:36:54;;;;;;;9.10;5.90;;;23.50;99.90;;;;;;5003083;28;20866;-65
2021/09/12 11:39:25;;;;;;;9.10;6.77;;;23.70;99.90;;;;;;4999984;28;20489;-64
2021/09/12 11:41:57;;;;;;;8.80;6.40;;;23.70;99.90;;;;;;5009712;28;20566;-65
2021/09/12 11:44:32;;;;;;;9.23;6.83;;;23.50;99.90;;;;;;5009605;28;20237;-65
2021/09/12 11:47:04;;;;;;;9.50;6.87;;;23.20;99.90;;;;;;5010404;28;20263;-64
2021/09/12 11:49:32;;;;;;;9.30;6.80;;;22.90;99.90;;;;;;4999781;28;20628;-64
2021/09/12 11:52:00;;;;;;;9.93;6.90;;;22.60;99.90;;;;;;5002159;28;20701;-63
2021/09/12 11:54:31;;;;;;;9.27;6.73;;;22.40;99.90;;;;;;5002498;28;20368;-63
2021/09/12 11:57:01;;;;;;;10.10;6.83;;;22.20;99.90;;;;;;5014958;28;20232;-64
2021/09/12 11:59:32;;;;;;;11.03;6.93;;;22.10;99.90;;;;;;5010611;28;20238;-65
2021/09/12 12:02:03;;;;;;;9.57;7.50;;;22.10;99.90;;;;;;5019148;28;20319;-65
2021/09/12 12:04:34;;;;;;;8.43;6.70;;;22.20;99.90;;;;;;5013335;28;20240;-64
2021/09/12 12:07:02;;;;;;;10.13;6.87;;;22.40;99.90;;;;;;5000542;28;20229;-64
2021/09/12 12:09:41;;;;;;;8.50;6.70;;;22.50;99.90;;;;;;5000942;28;20617;-63
2021/09/12 12:12:13;;;;;;;9.17;6.27;;;22.60;99.90;;;;;;5004778;28;20327;-63
2021/09/12 12:14:46;;;;;;;9.63;6.70;;;22.80;99.90;;;;;;4999626;28;20446;-64
2021/09/12 12:17:17;;;;;;;10.20;6.57;;;22.90;99.90;;;;;;4998882;28;20237;-65
2021/09/12 12:19:45;;;;;;;7.80;6.23;;;22.70;99.90;;;;;;5000181;28;20437;-64
2021/09/12 12:22:14;;;;;;;10.37;6.40;;;22.80;99.90;;;;;;5008151;28;20720;-64
2021/09/12 12:24:44;;;;;;;10.07;5.90;;;22.90;99.90;;;;;;5005155;28;20271;-64
2021/09/12 12:27:14;;;;;;;7.07;5.80;;;23.00;99.90;;;;;;5002595;28;20294;-64
2021/09/12 12:29:45;;;;;;;9.40;6.30;;;23.10;99.90;;;;;;5007466;28;20318;-64
2021/09/12 12:32:15;;;;;;;7.20;5.90;;;23.00;99.90;;;;;;5003114;28;20325;-64
2021/09/12 12:34:48;;;;;;;8.10;6.13;;;23.00;99.90;;;;;;5006540;28;20887;-64
2021/09/12 12:37:18;;;;;;;9.60;5.70;;;22.90;99.90;;;;;;5002421;28;20251;-64
2021/09/12 12:39:58;;;;;;;9.03;5.90;;;23.00;99.90;;;;;;5003015;28;20256;-64
2021/09/12 12:42:35;;;;;;;6.73;4.80;;;23.10;99.90;;;;;;5004248;28;20263;-64
2021/09/12 12:45:18;;;;;;;7.07;5.17;;;23.10;99.90;;;;;;5009927;28;20324;-64